< < Back
Terminal Aerodrome Forecast


Current Version              Previous Versions:   1  2  3  4  5  6  7  8  9  

Terminal Aerodrome Forecast

805
FTUS42 KGSP 300532
TAFAND
TAF
KAND 300532Z 3006/3106 25003KT P6SM FEW120 SCT180
      TEMPO 3009/3012 4SM BR FEW080
     FM301800 25007KT P6SM SCT070 PROB30 3021/3024 4SM -TSRA
      BKN050CB
     FM310300 24003KT P6SM SCT070=



Latest METAR

812
SAUS70 KWBC 301800 RRH
MTRAND
METAR KAND 301756Z AUTO VRB06G14KT 10SM CLR 33/19 A3001 RMK AO2 SLP148
60000 T03330194 10333 20239 58012


USA.gov is the U.S. government's official web portal to all federal, state and local government web resources and services.